createdAt,value
2023-04-18T00:00:14.757Z,82.06
2023-04-18T00:01:14.722Z,82.16
2023-04-18T00:02:14.768Z,81.85
2023-04-18T00:03:14.954Z,82.06
2023-04-18T00:04:15.182Z,82.89
2023-04-18T00:05:14.705Z,82.61
2023-04-18T00:06:14.679Z,82.30
2023-04-18T00:07:14.641Z,81.96
2023-04-18T00:08:14.662Z,82.16
2023-04-18T00:09:14.731Z,81.44
2023-04-18T00:10:14.662Z,81.75
2023-04-18T00:11:14.607Z,81.44
2023-04-18T00:12:14.613Z,81.34
2023-04-18T00:13:14.610Z,82.06
2023-04-18T00:14:14.938Z,81.23
2023-04-18T00:15:14.587Z,80.82
2023-04-18T00:16:14.652Z,80.72
2023-04-18T00:17:14.588Z,81.20
2023-04-18T00:18:14.561Z,80.82
2023-04-18T00:19:14.520Z,81.34
2023-04-18T00:20:14.550Z,81.44
2023-04-18T00:21:14.509Z,81.65
2023-04-18T00:22:14.511Z,82.06
2023-04-18T00:23:14.492Z,81.54
2023-04-18T00:24:14.644Z,81.89
2023-04-18T00:25:14.457Z,82.82
2023-04-18T00:26:14.487Z,81.89
2023-04-18T00:27:14.431Z,81.37
2023-04-18T00:28:14.466Z,82.51
2023-04-18T00:29:14.420Z,82.61
2023-04-18T00:30:14.430Z,81.79
2023-04-18T00:31:14.427Z,82.71
2023-04-18T00:32:14.425Z,81.75
2023-04-18T00:33:14.376Z,81.34
2023-04-18T00:34:14.666Z,80.82
2023-04-18T00:35:14.376Z,82.26
2023-04-18T00:36:14.372Z,81.13
2023-04-18T00:37:14.364Z,81.96
2023-04-18T00:38:14.365Z,81.75
2023-04-18T00:39:14.312Z,81.23
2023-04-18T00:40:14.330Z,80.82
2023-04-18T00:41:14.290Z,81.65
2023-04-18T00:42:14.301Z,81.44
2023-04-18T00:43:14.394Z,81.23
2023-04-18T00:44:14.616Z,80.82
2023-04-18T00:45:14.267Z,81.75
2023-04-18T00:46:14.299Z,81.34
2023-04-18T00:47:14.234Z,81.65
2023-04-18T00:48:14.256Z,81.75
2023-04-18T00:49:14.238Z,81.75
2023-04-18T00:50:14.238Z,82.57
2023-04-18T00:51:14.197Z,81.75
2023-04-18T00:52:14.198Z,81.85
2023-04-18T00:53:14.173Z,82.06
2023-04-18T00:54:14.511Z,81.34
2023-04-18T00:55:14.147Z,81.23
2023-04-18T00:56:14.189Z,81.44
2023-04-18T00:57:14.121Z,82.47
2023-04-18T00:58:14.134Z,81.23
2023-04-18T00:59:14.294Z,82.47
2023-04-18T01:00:14.118Z,81.20
2023-04-18T01:01:14.150Z,82.43
2023-04-18T01:02:14.125Z,82.12
2023-04-18T01:03:14.176Z,82.26
2023-04-18T01:04:14.575Z,82.37
2023-04-18T01:05:14.063Z,82.23
2023-04-18T01:06:14.078Z,81.71
2023-04-18T01:07:14.016Z,81.20
2023-04-18T01:08:14.035Z,81.61
2023-04-18T01:09:14.075Z,81.71
2023-04-18T01:10:14.037Z,81.51
2023-04-18T01:11:13.984Z,82.02
2023-04-18T01:12:14.003Z,80.54
2023-04-18T01:13:13.959Z,80.13
2023-04-18T01:14:14.176Z,79.72
2023-04-18T01:15:13.938Z,79.72
2023-04-18T01:16:14.042Z,80.23
2023-04-18T01:17:13.939Z,80.75
2023-04-18T01:18:13.929Z,80.75
2023-04-18T01:19:13.897Z,80.89
2023-04-18T01:20:13.915Z,80.68
2023-04-18T01:21:13.895Z,80.27
2023-04-18T01:22:13.890Z,80.37
2023-04-18T01:23:13.857Z,80.89
2023-04-18T01:24:14.059Z,81.34
2023-04-18T01:25:13.834Z,80.47
2023-04-18T01:26:13.904Z,80.37
2023-04-18T01:27:13.881Z,80.58
2023-04-18T01:28:13.840Z,80.68
2023-04-18T01:29:13.804Z,80.68
2023-04-18T01:30:13.819Z,81.20
2023-04-18T01:31:13.824Z,80.27
2023-04-18T01:32:13.813Z,80.47
2023-04-18T01:33:13.755Z,80.89
2023-04-18T01:34:13.948Z,80.82
2023-04-18T01:35:13.736Z,80.93
2023-04-18T01:36:13.742Z,81.34
2023-04-18T01:37:13.720Z,81.03
2023-04-18T01:38:13.751Z,81.65
2023-04-18T01:39:13.718Z,81.68
2023-04-18T01:40:13.709Z,82.20
2023-04-18T01:41:13.670Z,82.10
2023-04-18T01:42:13.689Z,81.79
2023-04-18T01:43:13.672Z,81.89
2023-04-18T01:44:13.948Z,83.13
2023-04-18T01:45:13.653Z,82.10
2023-04-18T01:46:13.676Z,82.92
2023-04-18T01:47:13.604Z,83.23
2023-04-18T01:48:13.634Z,83.27
2023-04-18T01:49:13.618Z,82.75
2023-04-18T01:50:13.645Z,83.23
2023-04-18T01:51:13.576Z,82.40
2023-04-18T01:52:13.577Z,82.61
2023-04-18T01:53:13.550Z,82.40
2023-04-18T01:54:13.843Z,82.40
2023-04-18T01:55:13.522Z,82.40
2023-04-18T01:56:13.545Z,83.03
2023-04-18T01:57:13.531Z,81.48
2023-04-18T01:58:13.511Z,81.79
2023-04-18T01:59:13.482Z,82.92
2023-04-18T02:00:13.517Z,82.71
2023-04-18T02:01:13.529Z,82.40
2023-04-18T02:02:13.573Z,82.10
2023-04-18T02:03:13.639Z,82.71
2023-04-18T02:04:13.780Z,82.61
2023-04-18T02:05:13.452Z,82.51
2023-04-18T02:06:13.441Z,81.89
2023-04-18T02:07:13.395Z,81.89
2023-04-18T02:08:13.412Z,82.10
2023-04-18T02:09:13.387Z,83.37
2023-04-18T02:10:13.406Z,83.06
2023-04-18T02:11:13.365Z,82.45
2023-04-18T02:12:13.374Z,82.75
2023-04-18T02:13:13.339Z,82.55
2023-04-18T02:14:13.463Z,84.20
2023-04-18T02:15:13.322Z,83.27
2023-04-18T02:16:13.389Z,82.96
2023-04-18T02:17:13.298Z,82.71
2023-04-18T02:18:13.321Z,82.65
2023-04-18T02:19:13.277Z,83.06
2023-04-18T02:20:13.337Z,83.48
2023-04-18T02:21:13.275Z,83.58
2023-04-18T02:22:13.283Z,84.30
2023-04-18T02:23:13.231Z,83.37
2023-04-18T02:24:13.484Z,83.58
2023-04-18T02:25:13.235Z,82.75
2023-04-18T02:26:13.233Z,83.37
2023-04-18T02:27:13.214Z,82.86
2023-04-18T02:28:13.246Z,82.82
2023-04-18T02:29:13.169Z,82.65
2023-04-18T02:30:13.187Z,82.20
2023-04-18T02:31:13.149Z,82.61
2023-04-18T02:32:13.242Z,82.10
2023-04-18T02:33:13.149Z,81.79
2023-04-18T02:34:13.471Z,81.79
2023-04-18T02:35:13.107Z,82.51
2023-04-18T02:36:13.119Z,81.79
2023-04-18T02:37:13.099Z,82.06
2023-04-18T02:38:13.124Z,81.44
2023-04-18T02:39:13.068Z,81.44
2023-04-18T02:40:13.084Z,81.44
2023-04-18T02:41:13.056Z,81.85
2023-04-18T02:42:13.070Z,82.26
2023-04-18T02:43:13.028Z,82.26
2023-04-18T02:44:13.242Z,81.44
2023-04-18T02:45:13.015Z,82.92
2023-04-18T02:46:13.052Z,82.30
2023-04-18T02:47:13.013Z,81.68
2023-04-18T02:48:13.010Z,82.20
2023-04-18T02:49:13.015Z,81.99
2023-04-18T02:50:12.968Z,82.92
2023-04-18T02:51:12.971Z,83.23
2023-04-18T02:52:12.942Z,83.33
2023-04-18T02:53:12.955Z,82.71
2023-04-18T02:54:13.245Z,82.40
2023-04-18T02:55:12.945Z,82.82
2023-04-18T02:56:12.917Z,83.13
2023-04-18T02:57:12.905Z,82.61
2023-04-18T02:58:12.866Z,82.30
2023-04-18T02:59:12.903Z,82.82
2023-04-18T03:00:12.887Z,82.30
2023-04-18T03:01:12.901Z,82.71
2023-04-18T03:02:12.859Z,82.40
2023-04-18T03:03:12.966Z,82.71
2023-04-18T03:04:13.036Z,83.23
2023-04-18T03:05:12.921Z,82.71
2023-04-18T03:06:12.800Z,82.92
2023-04-18T03:07:12.825Z,82.71
2023-04-18T03:08:12.769Z,82.61
2023-04-18T03:09:12.800Z,82.82
2023-04-18T03:10:12.754Z,82.92
2023-04-18T03:11:12.799Z,82.40
2023-04-18T03:12:12.753Z,82.71
2023-04-18T03:13:12.739Z,82.40
2023-04-18T03:14:12.902Z,82.51
2023-04-18T03:15:12.732Z,83.23
2023-04-18T03:16:12.792Z,82.92
2023-04-18T03:17:12.713Z,82.30
2023-04-18T03:18:12.665Z,82.26
2023-04-18T03:19:12.752Z,82.78
2023-04-18T03:20:12.681Z,83.23
2023-04-18T03:21:12.631Z,83.13
2023-04-18T03:22:12.672Z,83.71
2023-04-18T03:23:12.628Z,82.68
2023-04-18T03:24:12.667Z,82.98
2023-04-18T03:25:12.584Z,82.68
2023-04-18T03:26:12.622Z,82.37
2023-04-18T03:27:12.563Z,82.47
2023-04-18T03:28:12.604Z,81.75
2023-04-18T03:29:12.570Z,82.57
2023-04-18T03:30:12.563Z,83.09
2023-04-18T03:31:12.549Z,82.68
2023-04-18T03:32:12.535Z,83.61
2023-04-18T03:33:12.531Z,82.16
2023-04-18T03:34:12.734Z,82.12
2023-04-18T03:35:12.493Z,81.51
2023-04-18T03:36:12.501Z,82.02
2023-04-18T03:37:12.481Z,82.02
2023-04-18T03:38:12.477Z,82.12
2023-04-18T03:39:12.460Z,82.23
2023-04-18T03:40:12.457Z,82.43
2023-04-18T03:41:12.440Z,81.92
2023-04-18T03:42:12.462Z,82.54
2023-04-18T03:43:12.404Z,83.05
2023-04-18T03:44:12.633Z,82.54
2023-04-18T03:45:12.431Z,82.64
2023-04-18T03:46:12.416Z,82.64
2023-04-18T03:47:12.356Z,82.43
2023-04-18T03:48:12.375Z,82.33
2023-04-18T03:49:12.348Z,82.12
2023-04-18T03:50:12.382Z,81.40
2023-04-18T03:51:12.319Z,81.51
2023-04-18T03:52:12.344Z,82.33
2023-04-18T03:53:12.296Z,82.43
2023-04-18T03:54:12.631Z,81.81
2023-04-18T03:55:12.295Z,82.43
2023-04-18T03:56:12.289Z,82.64
2023-04-18T03:57:12.261Z,82.23
2023-04-18T03:58:12.271Z,81.81
2023-04-18T03:59:12.259Z,82.23
2023-04-18T04:00:12.258Z,82.54
2023-04-18T04:01:12.231Z,82.95
2023-04-18T04:02:12.288Z,83.26
2023-04-18T04:03:12.393Z,82.64
2023-04-18T04:04:12.472Z,82.84
2023-04-18T04:05:12.229Z,82.84
2023-04-18T04:06:12.233Z,83.47
2023-04-18T04:07:12.173Z,83.77
2023-04-18T04:08:12.166Z,83.29
2023-04-18T04:09:12.156Z,83.09
2023-04-18T04:10:12.164Z,84.01
2023-04-18T04:11:12.119Z,84.01
2023-04-18T04:12:12.143Z,83.77
2023-04-18T04:13:12.105Z,83.67
2023-04-18T04:14:12.375Z,84.01
2023-04-18T04:15:12.079Z,83.15
2023-04-18T04:16:12.143Z,83.26
2023-04-18T04:17:12.085Z,83.67
2023-04-18T04:18:12.086Z,84.43
2023-04-18T04:19:12.961Z,83.67
2023-04-18T04:20:12.064Z,83.05
2023-04-18T04:21:12.026Z,83.47
2023-04-18T04:22:12.095Z,83.87
2023-04-18T04:23:12.029Z,83.47
2023-04-18T04:24:12.188Z,84.49
2023-04-18T04:25:12.016Z,84.59
2023-04-18T04:26:11.982Z,84.29
2023-04-18T04:27:12.028Z,83.87
2023-04-18T04:28:11.997Z,84.19
2023-04-18T04:29:11.942Z,83.77
2023-04-18T04:30:13.335Z,83.26
2023-04-18T04:31:11.920Z,84.19
2023-04-18T04:32:12.019Z,83.67
2023-04-18T04:33:11.909Z,83.77
2023-04-18T04:34:12.063Z,83.67
2023-04-18T04:35:11.873Z,83.67
2023-04-18T04:36:11.905Z,83.87
2023-04-18T04:37:11.849Z,83.77
2023-04-18T04:38:11.880Z,83.36
2023-04-18T04:39:11.863Z,83.87
2023-04-18T04:40:11.858Z,83.56
2023-04-18T04:41:11.839Z,83.05
2023-04-18T04:42:11.814Z,83.47
2023-04-18T04:43:11.814Z,83.56
2023-04-18T04:44:12.070Z,84.08
2023-04-18T04:45:11.782Z,84.08
2023-04-18T04:46:11.814Z,84.59
2023-04-18T04:47:11.745Z,84.70
2023-04-18T04:48:11.753Z,83.98
2023-04-18T04:49:11.726Z,84.08
2023-04-18T04:50:11.744Z,83.98
2023-04-18T04:51:11.703Z,83.87
2023-04-18T04:52:11.759Z,84.80
2023-04-18T04:53:11.701Z,84.80
2023-04-18T04:54:11.897Z,85.52
2023-04-18T04:55:11.665Z,84.80
2023-04-18T04:56:11.680Z,84.70
2023-04-18T04:57:11.642Z,84.59
2023-04-18T04:58:11.646Z,84.19
2023-04-18T04:59:11.625Z,83.94
2023-04-18T05:00:11.627Z,84.56
2023-04-18T05:01:11.621Z,84.05
2023-04-18T05:02:11.703Z,84.45
2023-04-18T05:03:11.734Z,84.56
2023-04-18T05:04:11.854Z,85.28
2023-04-18T05:05:11.560Z,85.07
2023-04-18T05:06:11.570Z,85.17
2023-04-18T05:07:11.551Z,85.69
2023-04-18T05:08:11.550Z,84.56
2023-04-18T05:09:11.530Z,84.56
2023-04-18T05:10:11.531Z,84.66
2023-04-18T05:11:11.495Z,84.77
2023-04-18T05:12:11.562Z,84.66
2023-04-18T05:13:11.468Z,84.97
2023-04-18T05:14:11.627Z,84.25
2023-04-18T05:15:11.453Z,84.56
2023-04-18T05:16:11.503Z,84.77
2023-04-18T05:17:11.427Z,84.87
2023-04-18T05:18:11.468Z,86.00
2023-04-18T05:19:11.409Z,85.49
2023-04-18T05:20:11.445Z,85.69
2023-04-18T05:21:11.395Z,84.66
2023-04-18T05:22:11.401Z,85.79
2023-04-18T05:23:11.389Z,85.38
2023-04-18T05:24:11.377Z,85.38
2023-04-18T05:25:11.382Z,85.42
2023-04-18T05:26:11.381Z,86.04
2023-04-18T05:27:11.334Z,86.35
2023-04-18T05:28:11.343Z,87.48
2023-04-18T05:29:11.321Z,86.45
2023-04-18T05:30:11.318Z,86.21
2023-04-18T05:31:11.335Z,85.49
2023-04-18T05:32:11.298Z,85.79
2023-04-18T05:33:11.260Z,85.89
2023-04-18T05:34:11.465Z,85.07
2023-04-18T05:35:11.253Z,85.79
2023-04-18T05:36:11.260Z,85.59
2023-04-18T05:37:11.266Z,85.69
2023-04-18T05:38:11.263Z,85.79
2023-04-18T05:39:11.202Z,85.69
2023-04-18T05:40:11.234Z,86.10
2023-04-18T05:41:11.235Z,85.59
2023-04-18T05:42:11.197Z,85.79
2023-04-18T05:43:11.176Z,85.89
2023-04-18T05:44:11.208Z,86.06
2023-04-18T05:45:11.156Z,86.10
2023-04-18T05:46:11.168Z,86.06
2023-04-18T05:47:11.120Z,86.58
2023-04-18T05:48:11.225Z,86.88
2023-04-18T05:49:11.144Z,86.37
2023-04-18T05:50:11.144Z,85.44
2023-04-18T05:51:11.594Z,86.37
2023-04-18T05:52:11.093Z,85.55
2023-04-18T05:53:11.074Z,86.68
2023-04-18T05:54:11.140Z,86.68
2023-04-18T05:55:11.053Z,86.06
2023-04-18T05:56:11.073Z,85.75
2023-04-18T05:57:11.036Z,85.34
2023-04-18T05:58:11.035Z,85.55
2023-04-18T05:59:11.017Z,85.14
2023-04-18T06:00:11.013Z,86.16
2023-04-18T06:01:11.007Z,85.34
2023-04-18T06:02:11.082Z,85.96
2023-04-18T06:03:11.543Z,85.10
2023-04-18T06:04:11.155Z,84.89
2023-04-18T06:05:11.139Z,84.27
2023-04-18T06:06:10.952Z,84.27
2023-04-18T06:07:10.982Z,84.89
2023-04-18T06:08:10.951Z,85.44
2023-04-18T06:09:10.903Z,84.62
2023-04-18T06:10:10.919Z,85.96
2023-04-18T06:11:10.890Z,85.14
2023-04-18T06:12:10.909Z,85.24
2023-04-18T06:13:10.882Z,84.99
2023-04-18T06:14:10.863Z,85.10
2023-04-18T06:15:10.829Z,85.51
2023-04-18T06:16:10.883Z,85.82
2023-04-18T06:17:10.818Z,86.47
2023-04-18T06:18:10.844Z,85.96
2023-04-18T06:19:10.794Z,85.96
2023-04-18T06:20:10.855Z,85.75
2023-04-18T06:21:11.179Z,85.24
2023-04-18T06:22:10.789Z,85.44
2023-04-18T06:23:10.776Z,86.06
2023-04-18T06:24:10.768Z,85.55
2023-04-18T06:25:10.746Z,86.47
2023-04-18T06:26:10.736Z,85.86
2023-04-18T06:27:20.434Z,85.44
2023-04-18T06:28:10.764Z,85.82
2023-04-18T06:29:10.714Z,86.02
2023-04-18T06:30:10.713Z,86.47
2023-04-18T06:31:10.690Z,87.60
2023-04-18T06:32:10.703Z,87.40
2023-04-18T06:33:10.668Z,86.47
2023-04-18T06:34:10.674Z,86.99
2023-04-18T06:35:10.631Z,86.33
2023-04-18T06:36:10.680Z,85.71
2023-04-18T06:37:10.613Z,86.02
2023-04-18T06:38:10.625Z,85.20
2023-04-18T06:39:10.589Z,85.82
2023-04-18T06:40:10.618Z,85.51
2023-04-18T06:41:10.568Z,85.20
2023-04-18T06:42:10.586Z,85.20
2023-04-18T06:43:10.540Z,85.71
2023-04-18T06:44:10.572Z,84.99
2023-04-18T06:45:10.561Z,84.69
2023-04-18T06:46:10.549Z,84.54
2023-04-18T06:47:10.503Z,84.34
2023-04-18T06:48:10.610Z,85.06
2023-04-18T06:49:10.494Z,84.75
2023-04-18T06:50:10.537Z,84.13
2023-04-18T06:51:10.468Z,83.83
2023-04-18T06:52:10.478Z,85.06
2023-04-18T06:53:10.452Z,85.36
2023-04-18T06:54:10.448Z,84.44
2023-04-18T06:55:10.428Z,85.36
2023-04-18T06:56:10.438Z,86.19
2023-04-18T06:57:10.404Z,86.29
2023-04-18T06:58:10.455Z,84.64
2023-04-18T06:59:10.376Z,84.44
2023-04-18T07:00:10.392Z,84.85
2023-04-18T07:01:10.435Z,86.60
2023-04-18T07:02:10.377Z,85.26
2023-04-18T07:03:11.374Z,85.16
2023-04-18T07:04:10.494Z,84.13
2023-04-18T07:05:10.346Z,83.68
2023-04-18T07:06:10.316Z,84.40
2023-04-18T07:07:10.324Z,83.99
2023-04-18T07:08:10.286Z,83.58
2023-04-18T07:09:10.293Z,83.99
2023-04-18T07:10:10.259Z,84.50
2023-04-18T07:11:10.278Z,84.09
2023-04-18T07:12:10.252Z,85.84
2023-04-18T07:13:10.249Z,85.12
2023-04-18T07:14:10.214Z,84.40
2023-04-18T07:15:10.232Z,84.71
2023-04-18T07:16:10.225Z,85.02
2023-04-18T07:17:10.304Z,84.71
2023-04-18T07:18:10.201Z,83.37
2023-04-18T07:19:10.232Z,82.76
2023-04-18T07:20:11.247Z,83.23
2023-04-18T07:21:10.185Z,83.13
2023-04-18T07:22:10.132Z,83.13
2023-04-18T07:23:10.178Z,82.89
2023-04-18T07:24:10.126Z,82.10
2023-04-18T07:25:10.137Z,82.71
2023-04-18T07:26:10.100Z,82.06
2023-04-18T07:27:10.101Z,83.09
2023-04-18T07:28:10.082Z,83.81
2023-04-18T07:29:10.091Z,82.68
2023-04-18T07:30:10.061Z,82.57
2023-04-18T07:31:10.085Z,82.84
2023-04-18T07:32:10.036Z,82.33
2023-04-18T07:33:10.046Z,81.82
2023-04-18T07:34:10.070Z,81.51
2023-04-18T07:35:10.033Z,81.82
2023-04-18T07:36:10.001Z,81.45
2023-04-18T07:37:10.024Z,82.68
2023-04-18T07:38:09.985Z,82.17
2023-04-18T07:39:10.020Z,83.09
2023-04-18T07:40:09.971Z,83.29
2023-04-18T07:41:09.963Z,83.54
2023-04-18T07:42:09.940Z,83.19
2023-04-18T07:43:09.931Z,83.70
2023-04-18T07:44:09.904Z,83.61
2023-04-18T07:45:09.977Z,83.50
2023-04-18T07:46:09.921Z,83.50
2023-04-18T07:47:09.998Z,83.70
2023-04-18T07:48:09.904Z,83.95
2023-04-18T07:49:09.880Z,84.12
2023-04-18T07:50:09.841Z,84.63
2023-04-18T07:51:09.871Z,83.81
2023-04-18T07:52:09.821Z,83.19
2023-04-18T07:53:09.838Z,83.70
2023-04-18T07:54:09.806Z,83.19
2023-04-18T07:55:09.828Z,83.29
2023-04-18T07:56:09.801Z,83.40
2023-04-18T07:57:09.793Z,83.09
2023-04-18T07:58:09.760Z,82.82
2023-04-18T07:59:09.777Z,83.23
2023-04-18T08:00:09.802Z,84.05
2023-04-18T08:01:09.763Z,83.64
2023-04-18T08:02:09.803Z,83.68
2023-04-18T08:03:09.891Z,83.64
2023-04-18T08:04:09.912Z,84.56
2023-04-18T08:05:09.871Z,84.36
2023-04-18T08:06:09.676Z,84.36
2023-04-18T08:07:09.731Z,84.47
2023-04-18T08:08:09.656Z,84.67
2023-04-18T08:09:09.668Z,86.72
2023-04-18T08:10:09.639Z,85.28
2023-04-18T08:11:09.680Z,84.26
2023-04-18T08:12:09.614Z,84.98
2023-04-18T08:13:09.678Z,84.32
2023-04-18T08:14:09.606Z,84.94
2023-04-18T08:15:09.624Z,84.22
2023-04-18T08:16:09.622Z,83.56
2023-04-18T08:17:09.586Z,83.36
2023-04-18T08:18:09.586Z,83.26
2023-04-18T08:19:09.577Z,84.55
2023-04-18T08:20:09.545Z,83.63
2023-04-18T08:21:09.546Z,83.32
2023-04-18T08:22:09.507Z,81.85
2023-04-18T08:23:12.170Z,81.99
2023-04-18T08:24:09.513Z,81.68
2023-04-18T08:25:09.515Z,82.67
2023-04-18T08:26:09.465Z,82.56
2023-04-18T08:27:09.478Z,81.85
2023-04-18T08:28:09.474Z,81.60
2023-04-18T08:29:09.493Z,82.32
2023-04-18T08:30:09.433Z,80.85
2023-04-18T08:31:09.473Z,80.54
2023-04-18T08:32:09.466Z,79.93
2023-04-18T08:33:09.485Z,79.41
2023-04-18T08:34:09.383Z,81.36
2023-04-18T08:35:09.403Z,80.23
2023-04-18T08:36:09.405Z,80.74
2023-04-18T08:37:09.378Z,80.54
2023-04-18T08:38:09.375Z,80.54
2023-04-18T08:39:09.352Z,79.72
2023-04-18T08:40:09.393Z,81.15
2023-04-18T08:41:09.326Z,81.40
2023-04-18T08:42:09.301Z,80.47
2023-04-18T08:43:09.394Z,80.88
2023-04-18T08:44:09.305Z,80.88
2023-04-18T08:45:09.323Z,80.47
2023-04-18T08:46:09.330Z,79.86
2023-04-18T08:47:09.275Z,80.23
2023-04-18T08:48:09.284Z,79.72
2023-04-18T08:49:10.738Z,79.89
2023-04-18T08:50:09.224Z,80.91
2023-04-18T08:51:09.245Z,79.89
2023-04-18T08:52:09.192Z,81.12
2023-04-18T08:53:09.220Z,81.12
2023-04-18T08:54:09.165Z,79.17
2023-04-18T08:55:09.189Z,79.38
2023-04-18T08:56:09.179Z,80.16
2023-04-18T08:57:09.175Z,78.52
2023-04-18T08:58:09.137Z,78.52
2023-04-18T08:59:09.144Z,78.69
2023-04-18T09:00:09.116Z,77.87
2023-04-18T09:01:09.172Z,78.08
2023-04-18T09:02:09.223Z,78.08
2023-04-18T09:03:09.164Z,77.97
2023-04-18T09:04:09.121Z,77.94
2023-04-18T09:05:09.078Z,77.76
2023-04-18T09:06:09.053Z,77.87
2023-04-18T09:07:09.063Z,78.31
2023-04-18T09:08:09.034Z,78.93
2023-04-18T09:09:09.040Z,81.08
2023-04-18T09:10:09.002Z,80.67
2023-04-18T09:11:09.020Z,79.64
2023-04-18T09:12:09.000Z,78.59
2023-04-18T09:13:09.009Z,79.10
2023-04-18T09:14:09.009Z,77.87
2023-04-18T09:15:09.009Z,78.79
2023-04-18T09:16:08.970Z,79.16
2023-04-18T09:17:08.968Z,78.65
2023-04-18T09:18:08.991Z,79.37
2023-04-18T09:19:08.944Z,79.53
2023-04-18T09:20:08.914Z,77.29
2023-04-18T09:21:08.924Z,76.26
2023-04-18T09:22:08.875Z,75.92
2023-04-18T09:23:08.891Z,75.00
2023-04-18T09:24:08.875Z,75.92
2023-04-18T09:25:08.869Z,76.84
2023-04-18T09:26:08.844Z,75.51
2023-04-18T09:27:08.923Z,78.88
2023-04-18T09:28:08.826Z,77.93
2023-04-18T09:29:08.827Z,77.93
2023-04-18T09:30:08.819Z,76.70
2023-04-18T09:31:08.831Z,75.27
2023-04-18T09:32:08.785Z,75.89
2023-04-18T09:33:08.811Z,76.50
2023-04-18T09:34:08.756Z,77.83
2023-04-18T09:35:08.823Z,76.50
2023-04-18T09:36:08.737Z,75.99
2023-04-18T09:37:08.849Z,75.17
2023-04-18T09:38:08.738Z,75.71
2023-04-18T09:39:08.741Z,75.10
2023-04-18T09:40:08.692Z,75.10
2023-04-18T09:41:08.772Z,76.23
2023-04-18T09:42:08.692Z,77.97
2023-04-18T09:43:08.709Z,76.53
2023-04-18T09:44:09.715Z,75.82
2023-04-18T09:45:08.668Z,76.37
2023-04-18T09:46:08.753Z,76.26
2023-04-18T09:47:08.732Z,76.98
2023-04-18T09:48:08.653Z,78.00
2023-04-18T09:49:10.418Z,76.37
2023-04-18T09:50:08.635Z,77.80
2023-04-18T09:51:08.600Z,78.11
2023-04-18T09:52:08.631Z,77.80
2023-04-18T09:53:08.596Z,77.35
2023-04-18T09:54:08.548Z,78.07
2023-04-18T09:55:08.572Z,78.27
2023-04-18T09:56:08.529Z,76.70
2023-04-18T09:57:08.560Z,75.99
2023-04-18T09:58:08.510Z,76.09
2023-04-18T09:59:08.511Z,74.97
2023-04-18T10:00:08.487Z,75.58
2023-04-18T10:01:08.604Z,76.06
2023-04-18T10:02:08.587Z,75.75
2023-04-18T10:03:08.613Z,74.63
2023-04-18T10:04:08.529Z,74.15
2023-04-18T10:05:08.500Z,74.66
2023-04-18T10:06:08.448Z,75.27
2023-04-18T10:07:08.432Z,74.97
2023-04-18T10:08:08.497Z,75.51
2023-04-18T10:09:08.433Z,75.99
2023-04-18T10:10:08.376Z,75.48
2023-04-18T10:11:08.383Z,77.08
2023-04-18T10:12:08.365Z,75.85
2023-04-18T10:13:08.371Z,74.93
2023-04-18T10:14:08.337Z,74.01
2023-04-18T10:15:08.357Z,72.79
2023-04-18T10:16:08.410Z,73.19
2023-04-18T10:17:08.343Z,74.83
2023-04-18T10:18:08.314Z,74.32
2023-04-18T10:19:08.312Z,73.77
2023-04-18T10:20:08.275Z,75.31
2023-04-18T10:21:08.276Z,73.47
2023-04-18T10:22:08.245Z,73.27
2023-04-18T10:23:08.259Z,73.47
2023-04-18T10:24:08.267Z,73.77
2023-04-18T10:25:08.243Z,74.18
2023-04-18T10:26:08.217Z,74.59
2023-04-18T10:27:08.218Z,75.41
2023-04-18T10:28:08.203Z,75.51
2023-04-18T10:29:08.198Z,74.08
2023-04-18T10:30:09.224Z,75.10
2023-04-18T10:31:08.228Z,74.49
2023-04-18T10:32:08.152Z,73.33
2023-04-18T10:33:10.603Z,74.25
2023-04-18T10:34:08.132Z,72.62
2023-04-18T10:35:08.182Z,72.52
2023-04-18T10:36:08.109Z,73.33
2023-04-18T10:37:08.141Z,71.39
2023-04-18T10:38:08.079Z,72.92
2023-04-18T10:39:08.092Z,71.19
2023-04-18T10:40:08.081Z,71.09
2023-04-18T10:41:08.086Z,71.29
2023-04-18T10:42:08.043Z,71.56
2023-04-18T10:43:08.049Z,70.34
2023-04-18T10:44:08.680Z,70.04
2023-04-18T10:45:08.035Z,69.73
2023-04-18T10:46:14.385Z,71.06
2023-04-18T10:47:08.059Z,72.38
2023-04-18T10:48:08.025Z,71.46
2023-04-18T10:49:07.989Z,72.17
2023-04-18T10:50:07.993Z,75.60
2023-04-18T10:51:08.011Z,71.84
2023-04-18T10:52:07.963Z,73.06
2023-04-18T10:53:07.949Z,72.62
2023-04-18T10:54:07.911Z,71.39
2023-04-18T10:55:07.947Z,71.77
2023-04-18T10:56:07.896Z,69.73
2023-04-18T10:57:07.914Z,69.53
2023-04-18T10:58:07.904Z,71.67
2023-04-18T10:59:07.889Z,70.45
2023-04-18T11:00:07.850Z,70.86
2023-04-18T11:01:07.879Z,69.67
2023-04-18T11:02:07.878Z,71.30
2023-04-18T11:03:08.074Z,71.33
2023-04-18T11:04:07.870Z,72.21
2023-04-18T11:05:07.821Z,71.30
2023-04-18T11:06:07.784Z,70.58
2023-04-18T11:07:07.839Z,71.47
2023-04-18T11:08:07.780Z,69.84
2023-04-18T11:09:07.778Z,68.27
2023-04-18T11:10:07.737Z,71.23
2023-04-18T11:11:07.756Z,69.09
2023-04-18T11:12:07.775Z,68.18
2023-04-18T11:13:07.767Z,69.80
2023-04-18T11:14:07.747Z,69.09
2023-04-18T11:15:07.720Z,68.88
2023-04-18T11:16:07.744Z,67.36
2023-04-18T11:17:07.699Z,67.26
2023-04-18T11:18:07.771Z,68.21
2023-04-18T11:19:07.686Z,67.29
2023-04-18T11:20:07.661Z,67.63
2023-04-18T11:21:07.642Z,67.32
2023-04-18T11:22:07.639Z,69.12
2023-04-18T11:23:07.613Z,69.12
2023-04-18T11:24:07.637Z,67.16
2023-04-18T11:25:07.595Z,68.65
2023-04-18T11:26:07.597Z,68.01
2023-04-18T11:27:07.568Z,65.97
2023-04-18T11:28:07.625Z,67.50
2023-04-18T11:29:07.552Z,65.03
2023-04-18T11:30:07.606Z,66.08
2023-04-18T11:31:07.553Z,64.33
2023-04-18T11:32:07.646Z,62.60
2023-04-18T11:33:07.691Z,62.91
2023-04-18T11:34:07.512Z,63.75
2023-04-18T11:35:07.503Z,63.75
2023-04-18T11:36:07.503Z,64.39
2023-04-18T11:37:07.483Z,63.81
2023-04-18T11:38:07.474Z,65.36
2023-04-18T11:39:07.443Z,65.09
2023-04-18T11:40:07.467Z,66.11
2023-04-18T11:41:07.443Z,68.79
2023-04-18T11:42:07.437Z,66.78
2023-04-18T11:43:07.473Z,69.32
2023-04-18T11:44:08.137Z,67.08
2023-04-18T11:45:07.393Z,68.62
2023-04-18T11:46:07.474Z,68.31
2023-04-18T11:47:07.376Z,67.66
2023-04-18T11:48:07.402Z,66.55
2023-04-18T11:49:07.347Z,67.57
2023-04-18T11:50:07.361Z,67.46
2023-04-18T11:51:07.379Z,66.31
2023-04-18T11:52:07.362Z,65.26
2023-04-18T11:53:07.288Z,65.64
2023-04-18T11:54:07.302Z,66.96
2023-04-18T11:55:07.276Z,65.94
2023-04-18T11:56:07.296Z,65.71
2023-04-18T11:57:07.247Z,65.91
2023-04-18T11:58:07.294Z,64.76
2023-04-18T11:59:07.232Z,62.40
2023-04-18T12:00:07.268Z,62.60
2023-04-18T12:01:07.216Z,61.18
2023-04-18T12:02:16.105Z,65.34
2023-04-18T12:03:07.327Z,62.91
2023-04-18T12:04:07.500Z,63.62
2023-04-18T12:05:07.479Z,64.64
2023-04-18T12:06:07.259Z,63.85
2023-04-18T12:07:07.139Z,63.95
2023-04-18T12:08:07.155Z,64.94
2023-04-18T12:09:07.132Z,63.55
2023-04-18T12:10:07.180Z,62.05
2023-04-18T12:11:07.099Z,63.10
2023-04-18T12:12:07.114Z,65.10
2023-04-18T12:13:07.075Z,63.48
2023-04-18T12:14:07.126Z,63.28
2023-04-18T12:15:07.065Z,64.03
2023-04-18T12:16:07.122Z,61.53
2023-04-18T12:17:07.045Z,61.35
2023-04-18T12:18:07.081Z,58.65
2023-04-18T12:19:07.084Z,57.39
2023-04-18T12:20:07.041Z,56.98
2023-04-18T12:21:06.989Z,56.30
2023-04-18T12:22:07.013Z,59.36
2023-04-18T12:23:06.968Z,58.61
2023-04-18T12:24:07.028Z,58.44
2023-04-18T12:25:06.986Z,58.59
2023-04-18T12:26:06.974Z,59.70
2023-04-18T12:27:06.931Z,61.05
2023-04-18T12:28:06.946Z,61.05
2023-04-18T12:29:06.910Z,60.37
2023-04-18T12:30:06.931Z,62.30
2023-04-18T12:31:06.918Z,63.21
2023-04-18T12:32:06.922Z,60.88
2023-04-18T12:33:06.963Z,63.04
2023-04-18T12:34:06.892Z,64.18
2023-04-18T12:35:06.840Z,64.49
2023-04-18T12:36:06.873Z,63.98
2023-04-18T12:37:06.817Z,66.97
2023-04-18T12:38:06.834Z,68.12
2023-04-18T12:39:06.839Z,61.83
2023-04-18T12:40:06.814Z,61.04
2023-04-18T12:41:06.800Z,58.02
2023-04-18T12:42:06.819Z,59.99
2023-04-18T12:43:06.772Z,56.83
2023-04-18T12:44:06.781Z,57.46
2023-04-18T12:45:06.738Z,55.69
2023-04-18T12:46:06.781Z,56.84
2023-04-18T12:47:06.791Z,59.70
2023-04-18T12:48:06.840Z,60.33
2023-04-18T12:49:06.714Z,58.99
2023-04-18T12:50:06.717Z,61.11
2023-04-18T12:51:06.665Z,60.13
2023-04-18T12:52:06.702Z,60.86